Time;durP1;ratioP1;P1;durP2;ratioP2;P2;SDS_P1;SDS_P2;PMS_P1;PMS_P2;Temp;Humidity;BMP_temperature;BMP_pressure;BME280_temperature;BME280_humidity;BME280_pressure;Samples;Min_cycle;Max_cycle;Signal;HPM_P1;HPM_P2
2023/11/26 00:00:47;;;;;;;2.10;1.30;;;;;;;3.68;100.00;99287.28;2089007;28;20218;-63
2023/11/26 00:01:48;;;;;;;2.72;1.35;;;;;;;3.70;100.00;99290.34;2105274;28;20277;-63
2023/11/26 00:02:49;;;;;;;3.17;1.40;;;;;;;3.73;100.00;99288.75;2093143;28;20188;-63
2023/11/26 00:03:49;;;;;;;2.17;1.50;;;;;;;3.73;100.00;99289.53;2094811;28;20188;-63
2023/11/26 00:04:50;;;;;;;2.17;1.23;;;;;;;3.64;100.00;99294.78;2093914;28;20195;-63
2023/11/26 00:05:50;;;;;;;2.80;1.73;;;;;;;3.71;100.00;99293.88;2092161;28;20176;-63
2023/11/26 00:06:51;;;;;;;2.23;1.57;;;;;;;2.71;100.00;99136.41;2096455;28;20172;-63
2023/11/26 00:07:51;;;;;;;3.73;2.27;;;;;;;3.65;100.00;99279.13;2088544;28;20189;-63
2023/11/26 00:08:52;;;;;;;2.07;1.40;;;;;;;3.38;100.00;99245.56;2098129;28;20598;-63
2023/11/26 00:09:52;;;;;;;3.57;1.90;;;;;;;3.66;100.00;99273.25;2090533;28;20669;-63
2023/11/26 00:10:53;;;;;;;3.40;1.80;;;;;;;3.71;100.00;99286.44;2088954;28;20239;-63
2023/11/26 00:11:53;;;;;;;3.87;2.10;;;;;;;3.73;100.00;99289.53;2094120;28;20192;-64
2023/11/26 00:12:55;;;;;;;2.63;1.92;;;;;;;3.70;100.00;99289.59;2097854;28;20596;-64
2023/11/26 00:13:55;;;;;;;2.70;1.93;;;;;;;3.64;100.00;99300.25;2097344;28;20182;-64
2023/11/26 00:14:56;;;;;;;2.37;1.33;;;;;;;3.55;100.00;99288.31;2097408;28;20189;-64
2023/11/26 00:15:56;;;;;;;1.67;1.03;;;;;;;3.55;100.00;99289.06;2097827;28;20270;-63
2023/11/26 00:16:57;;;;;;;2.40;1.70;;;;;;;3.60;100.00;99293.28;2090154;28;20241;-63
2023/11/26 00:17:58;;;;;;;3.40;1.63;;;;;;;3.61;100.00;99279.19;2088863;28;20270;-63
2023/11/26 00:18:58;;;;;;;2.23;1.53;;;;;;;3.56;100.00;99281.63;2100303;28;20724;-63
2023/11/26 00:19:59;;;;;;;3.30;2.37;;;;;;;3.55;100.00;99285.56;2095744;28;20757;-63
2023/11/26 00:20:59;;;;;;;3.50;2.30;;;;;;;3.21;100.00;99241.13;2094537;28;20232;-64
2023/11/26 00:22:00;;;;;;;2.40;1.53;;;;;;;2.84;100.00;99195.63;2103637;28;20643;-63
2023/11/26 00:23:01;;;;;;;4.30;2.38;;;;;;;3.59;100.00;99278.06;2097780;28;20625;-63
2023/11/26 00:24:02;;;;;;;3.90;2.30;;;;;;;3.63;100.00;99281.50;2097914;28;20202;-64
2023/11/26 00:25:03;;;;;;;4.97;1.93;;;;;;;3.62;100.00;99283.47;2090223;28;20618;-63
2023/11/26 00:26:03;;;;;;;4.27;2.27;;;;;;;3.64;100.00;99277.59;2095719;28;20187;-63
2023/11/26 00:27:04;;;;;;;4.80;2.30;;;;;;;3.68;100.00;99287.28;2092601;28;20232;-63
2023/11/26 00:28:04;;;;;;;3.13;2.20;;;;;;;3.68;100.00;99291.97;2092498;28;20675;-63
2023/11/26 00:29:05;;;;;;;2.20;1.47;;;;;;;3.67;100.00;99295.91;2095335;28;20204;-63
2023/11/26 00:30:06;;;;;;;3.07;2.20;;;;;;;3.69;100.00;99283.34;2090466;28;20177;-63
2023/11/26 00:31:07;;;;;;;2.78;2.20;;;;;;;3.66;100.00;99294.38;2097012;28;20252;-64
2023/11/26 00:32:08;;;;;;;2.53;2.00;;;;;;;3.74;100.00;99293.06;2090235;28;20245;-63
2023/11/26 00:33:08;;;;;;;6.22;1.90;;;;;;;3.70;100.00;99287.63;2095582;28;20278;-63
2023/11/26 00:34:09;;;;;;;3.13;2.10;;;;;;;3.75;100.00;99283.66;2092636;28;20176;-63
2023/11/26 00:35:12;;;;;;;2.80;1.50;;;;;;;3.76;100.00;99283.22;2089452;28;20188;-63
2023/11/26 00:36:14;;;;;;;2.72;1.83;;;;;;;2.90;100.00;99149.41;2091458;28;20736;-63
2023/11/26 00:37:15;;;;;;;2.55;1.55;;;;;;;3.74;100.00;99282.84;2097539;28;20168;-63
2023/11/26 00:38:16;;;;;;;3.10;1.80;;;;;;;3.58;100.00;99244.41;2096962;28;20687;-63
2023/11/26 00:39:17;;;;;;;2.75;1.95;;;;;;;3.81;100.00;99282.75;2097667;28;20648;-63
2023/11/26 00:40:23;;;;;;;4.23;1.20;;;;;;;3.85;100.00;99299.13;2105160;28;20578;-64
2023/11/26 00:41:24;;;;;;;2.97;1.92;;;;;;;2.92;100.00;99158.72;2091096;28;20183;-64
2023/11/26 00:42:25;;;;;;;2.13;1.23;;;;;;;3.85;100.00;99294.41;2094985;28;20192;-63
2023/11/26 00:43:25;;;;;;;2.73;1.60;;;;;;;3.90;100.00;99295.91;2097322;28;20191;-63
2023/11/26 00:44:26;;;;;;;3.73;2.00;;;;;;;3.92;100.00;99293.50;2097069;28;20565;-63
2023/11/26 00:45:26;;;;;;;5.60;1.73;;;;;;;3.72;100.00;99266.06;2095275;28;20722;-63
2023/11/26 00:46:27;;;;;;;3.63;1.87;;;;;;;3.92;100.00;99305.25;2090441;28;20176;-63
2023/11/26 00:47:27;;;;;;;2.97;2.07;;;;;;;3.97;100.00;99304.75;2105945;28;20281;-64
2023/11/26 00:48:28;;;;;;;3.40;1.90;;;;;;;4.01;100.00;99308.19;2097713;28;20215;-64
2023/11/26 00:49:29;;;;;;;3.40;1.97;;;;;;;4.02;100.00;99315.25;2103948;28;20194;-63
2023/11/26 00:50:29;;;;;;;2.20;1.47;;;;;;;3.98;100.00;99314.53;2100792;28;20198;-63
2023/11/26 00:51:29;;;;;;;2.83;1.70;;;;;;;3.97;100.00;99307.50;2092397;28;20271;-63
2023/11/26 00:52:32;;;;;;;2.23;1.53;;;;;;;3.96;100.00;99322.38;2089198;28;20214;-64
2023/11/26 00:53:33;;;;;;;1.98;1.25;;;;;;;3.96;100.00;99316.16;2089189;28;20172;-64
2023/11/26 00:54:33;;;;;;;2.65;1.67;;;;;;;3.96;100.00;99314.16;2089714;28;20179;-64
2023/11/26 00:55:34;;;;;;;3.43;2.40;;;;;;;3.86;100.00;99315.13;2106080;28;20670;-63
2023/11/26 00:56:34;;;;;;;3.10;1.97;;;;;;;4.00;100.00;99325.84;2091372;28;20567;-64
2023/11/26 00:57:35;;;;;;;2.50;1.63;;;;;;;4.03;100.00;99325.00;2094788;28;20176;-64
2023/11/26 00:58:35;;;;;;;2.30;1.67;;;;;;;4.05;100.00;99317.13;2092719;28;20196;-63
2023/11/26 00:59:36;;;;;;;2.77;1.87;;;;;;;4.11;100.00;99329.16;2095997;28;20237;-63
2023/11/26 01:00:36;;;;;;;3.60;1.70;;;;;;;3.52;100.00;99228.88;2101372;28;20182;-63
2023/11/26 01:01:37;;;;;;;2.60;1.70;;;;;;;4.18;100.00;99331.00;2090436;28;20175;-63
2023/11/26 01:02:38;;;;;;;2.30;1.70;;;;;;;3.95;100.00;99303.63;2106066;28;20170;-63
2023/11/26 01:03:38;;;;;;;2.67;1.83;;;;;;;4.15;100.00;99327.13;2089165;28;20686;-64
2023/11/26 01:04:39;;;;;;;2.77;1.50;;;;;;;4.19;100.00;99340.75;2098892;28;20562;-63
2023/11/26 01:05:39;;;;;;;2.13;1.27;;;;;;;3.89;100.00;99302.56;2091834;28;20192;-63
2023/11/26 01:06:40;;;;;;;4.57;2.27;;;;;;;4.15;100.00;99354.53;2088780;28;20198;-63
2023/11/26 01:07:40;;;;;;;2.73;1.70;;;;;;;4.16;100.00;99339.63;2091387;28;20204;-63
2023/11/26 01:08:41;;;;;;;3.47;2.23;;;;;;;3.91;100.00;99295.47;2090730;28;20185;-64
2023/11/26 01:09:42;;;;;;;2.77;1.83;;;;;;;4.21;100.00;99346.63;2097236;28;20774;-63
2023/11/26 01:10:43;;;;;;;3.05;1.95;;;;;;;4.25;100.00;99344.59;2097168;28;20168;-63
2023/11/26 01:11:43;;;;;;;2.53;1.57;;;;;;;4.18;100.00;99340.00;2089183;28;20730;-63
2023/11/26 01:12:44;;;;;;;2.77;1.67;;;;;;;4.26;100.00;99344.16;2088784;28;20191;-64
2023/11/26 01:13:44;;;;;;;3.73;1.87;;;;;;;4.26;100.00;99349.63;2089143;28;20199;-64
2023/11/26 01:14:45;;;;;;;2.43;1.83;;;;;;;4.27;100.00;99345.69;2096009;28;20269;-63
2023/11/26 01:15:45;;;;;;;2.07;1.60;;;;;;;4.02;100.00;99317.19;2101436;28;20606;-64
2023/11/26 01:16:46;;;;;;;3.57;1.90;;;;;;;4.20;100.00;99339.59;2090636;28;20178;-63
2023/11/26 01:17:47;;;;;;;2.97;2.10;;;;;;;4.22;100.00;99345.41;2105429;28;20167;-63
2023/11/26 01:18:48;;;;;;;2.83;2.03;;;;;;;4.24;100.00;99338.31;2089435;28;20676;-63
2023/11/26 01:19:48;;;;;;;2.53;1.80;;;;;;;4.22;100.00;99335.25;2097328;28;20630;-64
2023/11/26 01:20:49;;;;;;;2.93;2.00;;;;;;;4.27;100.00;99342.94;2091548;28;20184;-64
2023/11/26 01:21:49;;;;;;;2.57;1.70;;;;;;;4.33;100.00;99340.50;2097021;28;20214;-64
2023/11/26 01:22:49;;;;;;;3.97;1.93;;;;;;;4.30;100.00;99328.41;2099494;28;20195;-64
2023/11/26 01:23:50;;;;;;;2.47;1.90;;;;;;;4.28;100.00;99330.81;2089060;28;20168;-64
2023/11/26 01:24:52;;;;;;;3.20;2.20;;;;;;;4.37;100.00;99335.72;2089106;28;20252;-64
2023/11/26 01:25:52;;;;;;;2.40;1.70;;;;;;;4.39;100.00;99336.84;2097484;28;20168;-64
2023/11/26 01:26:52;;;;;;;3.50;2.17;;;;;;;4.35;100.00;99336.16;2097288;28;20341;-64
2023/11/26 01:27:53;;;;;;;3.03;1.67;;;;;;;4.24;100.00;99318.34;2090575;28;20223;-63
2023/11/26 01:28:53;;;;;;;3.87;2.00;;;;;;;4.33;100.00;99346.78;2098731;28;20200;-64
2023/11/26 01:29:54;;;;;;;4.30;2.30;;;;;;;4.32;100.00;99339.72;2101982;28;20243;-63
2023/11/26 01:30:54;;;;;;;2.83;1.67;;;;;;;4.34;100.00;99350.28;2096785;28;20175;-64
2023/11/26 01:31:55;;;;;;;3.63;2.07;;;;;;;4.30;100.00;99335.84;2096077;28;20202;-64
2023/11/26 01:32:55;;;;;;;3.60;2.50;;;;;;;4.38;100.00;99348.25;2089239;28;20666;-64
2023/11/26 01:33:56;;;;;;;3.33;2.30;;;;;;;4.34;100.00;99334.59;2088287;28;20895;-64
2023/11/26 01:34:56;;;;;;;4.50;2.40;;;;;;;4.46;100.00;99347.69;2089195;28;20188;-64
2023/11/26 01:35:57;;;;;;;4.60;2.43;;;;;;;4.43;100.00;99343.06;2094220;28;20572;-64
2023/11/26 01:36:57;;;;;;;3.67;2.10;;;;;;;4.44;100.00;99354.78;2096603;28;20735;-64
2023/11/26 01:37:58;;;;;;;3.27;1.90;;;;;;;4.07;100.00;99292.84;2087659;28;20686;-64
2023/11/26 01:38:59;;;;;;;4.30;2.50;;;;;;;4.19;100.00;99300.44;2094897;28;20695;-64
2023/11/26 01:39:59;;;;;;;4.97;2.70;;;;;;;4.57;100.00;99348.25;2088819;28;20721;-64
2023/11/26 01:41:00;;;;;;;4.00;2.37;;;;;;;4.63;100.00;99360.28;2088719;28;20184;-64
2023/11/26 01:42:00;;;;;;;4.30;2.47;;;;;;;4.65;100.00;99368.06;2096118;28;20195;-64
2023/11/26 01:43:01;;;;;;;3.20;2.10;;;;;;;4.69;100.00;99355.84;2097211;28;20241;-64
2023/11/26 01:44:01;;;;;;;3.43;2.27;;;;;;;4.78;100.00;99352.53;2092538;28;20213;-63
2023/11/26 01:45:02;;;;;;;3.33;2.33;;;;;;;4.86;100.00;99346.47;2088944;28;20185;-64
2023/11/26 01:46:09;;;;;;;3.83;2.30;;;;;;;4.51;100.00;99289.59;2091043;28;20262;-64
2023/11/26 01:47:09;;;;;;;3.38;1.98;;;;;;;4.99;100.00;99363.06;2097113;28;20183;-64
2023/11/26 01:48:10;;;;;;;3.80;2.60;;;;;;;5.02;100.00;99356.75;2095759;28;20179;-64
2023/11/26 01:49:10;;;;;;;5.00;2.60;;;;;;;5.07;100.00;99357.00;2089068;28;20179;-64
2023/11/26 01:50:22;;;;;;;5.10;2.77;;;;;;;5.11;100.00;99362.41;2089026;28;20278;-64
2023/11/26 01:51:24;;;;;;;3.90;2.28;;;;;;;5.12;100.00;99359.25;2088495;28;20214;-64
2023/11/26 01:52:25;;;;;;;3.47;2.35;;;;;;;5.15;100.00;99363.88;2094805;28;20222;-64
2023/11/26 01:53:26;;;;;;;4.03;2.47;;;;;;;5.24;100.00;99368.78;2096574;28;20701;-64
2023/11/26 01:54:34;;;;;;;3.57;2.13;;;;;;;5.30;100.00;99372.56;2097142;28;21079;-64
2023/11/26 01:55:35;;;;;;;4.72;2.55;;;;;;;5.26;100.00;99375.41;2097220;28;20609;-64
2023/11/26 01:56:37;;;;;;;3.90;2.40;;;;;;;5.29;100.00;99376.53;2097134;28;20207;-64
2023/11/26 01:57:38;;;;;;;4.13;2.75;;;;;;;5.33;100.00;99369.75;2096513;28;20417;-64
2023/11/26 01:58:39;;;;;;;4.18;2.50;;;;;;;5.40;100.00;99374.31;2096955;28;20657;-64
2023/11/26 01:59:40;;;;;;;5.23;2.77;;;;;;;5.46;100.00;99391.81;2096537;28;20626;-64
2023/11/26 02:00:41;;;;;;;4.17;2.73;;;;;;;5.52;100.00;99373.63;2096042;28;20651;-64
2023/11/26 02:01:41;;;;;;;4.23;2.80;;;;;;;5.34;100.00;99348.56;2096299;28;20190;-64
2023/11/26 02:02:42;;;;;;;6.83;3.00;;;;;;;5.55;100.00;99381.78;2090455;28;20681;-64
2023/11/26 02:03:42;;;;;;;6.33;3.27;;;;;;;5.61;100.00;99388.34;2092537;28;20195;-63
2023/11/26 02:04:43;;;;;;;4.23;2.60;;;;;;;5.52;100.00;99384.63;2096974;28;20189;-64
2023/11/26 02:05:46;;;;;;;4.80;3.00;;;;;;;5.55;100.00;99386.53;2095645;28;20206;-64
2023/11/26 02:06:48;;;;;;;4.95;3.10;;;;;;;5.63;100.00;99388.66;2088568;28;20175;-64
2023/11/26 02:07:48;;;;;;;5.28;3.17;;;;;;;5.66;100.00;99382.31;2088429;28;20200;-64
2023/11/26 02:08:49;;;;;;;5.67;3.23;;;;;;;5.67;100.00;99391.34;2104071;28;20262;-64
2023/11/26 02:09:50;;;;;;;6.00;3.17;;;;;;;5.68;100.00;99390.13;2092791;28;20221;-64
2023/11/26 02:10:50;;;;;;;6.23;3.53;;;;;;;5.74;100.00;99397.44;2088360;28;20451;-64
2023/11/26 02:11:51;;;;;;;5.10;3.27;;;;;;;5.10;100.00;99297.72;2088746;28;20193;-64
2023/11/26 02:13:07;;;;;;;4.93;2.70;;;;;;;5.80;100.00;99395.00;2091206;28;20204;-64
2023/11/26 02:14:07;;;;;;;4.65;2.97;;;;;;;5.83;100.00;99391.34;2093706;28;20184;-64
2023/11/26 02:15:09;;;;;;;4.83;3.30;;;;;;;5.85;100.00;99395.22;2088709;28;20186;-64
2023/11/26 02:16:10;;;;;;;5.35;3.22;;;;;;;5.92;100.00;99394.28;2089590;28;20172;-64
2023/11/26 02:17:11;;;;;;;5.90;3.20;;;;;;;5.88;100.00;99388.88;2096986;28;20206;-64
2023/11/26 02:18:11;;;;;;;4.20;2.53;;;;;;;5.84;100.00;99403.94;2088489;28;20191;-64
2023/11/26 02:19:27;;;;;;;4.83;2.87;;;;;;;5.87;100.00;99395.59;2102158;28;20218;-64
2023/11/26 02:20:29;;;;;;;6.07;3.25;;;;;;;5.91;100.00;99399.03;2088942;28;20191;-64
2023/11/26 02:21:29;;;;;;;5.10;2.88;;;;;;;5.88;100.00;99397.13;2101241;28;20238;-64
2023/11/26 02:22:30;;;;;;;4.50;3.00;;;;;;;5.86;100.00;99396.00;2094829;28;20281;-64
2023/11/26 02:23:32;;;;;;;5.03;3.03;;;;;;;5.84;100.00;99398.44;2088724;28;20200;-64
2023/11/26 02:24:46;;;;;;;7.53;2.95;;;;;;;5.86;100.00;99385.81;2090473;28;20194;-64
2023/11/26 02:25:47;;;;;;;4.13;2.70;;;;;;;5.88;100.00;99394.38;2093878;28;20190;-64
2023/11/26 02:26:47;;;;;;;5.33;3.10;;;;;;;5.90;100.00;99386.47;2096338;28;20712;-64
2023/11/26 02:27:47;;;;;;;5.87;3.10;;;;;;;5.90;100.00;99396.72;2090566;28;20232;-64
2023/11/26 02:28:48;;;;;;;5.57;3.07;;;;;;;5.86;100.00;99388.56;2098785;28;20176;-64
2023/11/26 02:29:48;;;;;;;5.93;3.03;;;;;;;5.83;100.00;99394.91;2098619;28;20683;-64
2023/11/26 02:30:49;;;;;;;4.93;2.87;;;;;;;5.79;100.00;99399.66;2091247;28;20186;-64
2023/11/26 02:31:50;;;;;;;5.43;2.83;;;;;;;5.71;100.00;99367.28;2095678;28;20338;-64
2023/11/26 02:32:52;;;;;;;5.93;3.00;;;;;;;5.82;100.00;99400.81;2094510;28;20185;-64
2023/11/26 02:33:52;;;;;;;6.10;3.30;;;;;;;5.71;100.00;99394.78;2090335;28;20259;-64
2023/11/26 02:34:53;;;;;;;4.47;2.90;;;;;;;5.68;100.00;99399.16;2092176;28;20804;-64
2023/11/26 02:35:53;;;;;;;4.03;2.70;;;;;;;5.55;100.00;99381.03;2098237;28;20191;-64
2023/11/26 02:36:54;;;;;;;3.83;2.73;;;;;;;5.69;100.00;99397.94;2090455;28;20186;-64
2023/11/26 02:37:55;;;;;;;5.40;3.23;;;;;;;5.65;100.00;99411.00;2089752;28;20190;-64
2023/11/26 02:38:56;;;;;;;3.97;2.55;;;;;;;4.67;100.00;99240.25;2096555;28;20653;-64
2023/11/26 02:39:56;;;;;;;5.50;3.07;;;;;;;5.50;100.00;99398.03;2098485;28;20631;-64
2023/11/26 02:40:57;;;;;;;6.50;3.53;;;;;;;5.45;100.00;99401.28;2094631;28;20191;-64
2023/11/26 02:42:00;;;;;;;5.13;2.60;;;;;;;5.46;100.00;99387.13;2092437;28;20179;-64
2023/11/26 02:43:02;;;;;;;5.65;3.30;;;;;;;5.15;100.00;99355.66;2096978;28;20690;-64
2023/11/26 02:44:04;;;;;;;5.65;3.03;;;;;;;5.41;100.00;99404.09;2090660;28;20654;-63
2023/11/26 02:45:05;;;;;;;5.00;3.00;;;;;;;5.38;100.00;99404.94;2098590;28;20191;-64
2023/11/26 02:46:06;;;;;;;4.57;2.97;;;;;;;5.28;100.00;99410.69;2090558;28;20188;-64
2023/11/26 02:47:07;;;;;;;4.37;2.57;;;;;;;5.20;100.00;99395.56;2096634;28;20428;-64
2023/11/26 02:48:08;;;;;;;4.70;2.63;;;;;;;5.17;100.00;99413.66;2092796;28;20278;-64
2023/11/26 02:49:09;;;;;;;4.10;2.77;;;;;;;5.15;100.00;99418.03;2090171;28;20252;-64
2023/11/26 02:50:10;;;;;;;5.07;2.40;;;;;;;5.14;100.00;99403.50;2090254;28;20196;-64
2023/11/26 02:51:10;;;;;;;5.73;2.90;;;;;;;5.04;100.00;99407.28;2089704;28;20169;-64
2023/11/26 02:52:11;;;;;;;4.77;3.00;;;;;;;5.07;100.00;99411.16;2090100;28;20742;-64
2023/11/26 02:53:11;;;;;;;5.60;3.30;;;;;;;5.05;100.00;99421.75;2090462;28;20179;-64
2023/11/26 02:54:12;;;;;;;5.13;2.90;;;;;;;4.93;100.00;99403.94;2097546;28;20281;-64
2023/11/26 02:55:12;;;;;;;5.73;3.00;;;;;;;4.88;100.00;99418.16;2092850;28;20199;-64
2023/11/26 02:56:13;;;;;;;3.87;2.77;;;;;;;4.18;100.00;99298.88;2093719;28;20286;-64
2023/11/26 02:57:14;;;;;;;4.47;2.53;;;;;;;4.87;100.00;99419.38;2090292;28;20618;-64
2023/11/26 02:58:16;;;;;;;4.17;2.50;;;;;;;4.91;100.00;99417.34;2089448;28;20188;-64
2023/11/26 02:59:17;;;;;;;5.70;2.25;;;;;;;4.87;100.00;99421.38;2089742;28;20175;-64
2023/11/26 03:00:20;;;;;;;4.60;3.07;;;;;;;4.80;100.00;99421.50;2090372;28;20180;-64
2023/11/26 03:01:25;;;;;;;6.05;2.95;;;;;;;4.84;100.00;99424.94;2089905;28;20189;-64
2023/11/26 03:02:30;;;;;;;4.72;2.28;;;;;;;4.74;100.00;99396.53;2098079;28;20660;-65
2023/11/26 03:03:31;;;;;;;4.38;3.00;;;;;;;4.63;100.00;99420.66;2091100;28;20203;-64
2023/11/26 03:04:32;;;;;;;3.07;2.23;;;;;;;4.63;100.00;99423.41;2096153;28;20182;-64
2023/11/26 03:05:32;;;;;;;5.57;2.77;;;;;;;3.81;100.00;99290.97;2093763;28;20195;-63
2023/11/26 03:06:33;;;;;;;3.70;2.10;;;;;;;4.63;100.00;99419.88;2093613;28;20609;-64
2023/11/26 03:07:35;;;;;;;4.07;2.27;;;;;;;4.66;100.00;99419.78;2097730;28;20283;-64
2023/11/26 03:08:38;;;;;;;3.80;2.40;;;;;;;4.60;100.00;99405.03;2098382;28;20202;-64
2023/11/26 03:12:56;;;;;;;3.58;2.25;;;;;;;4.77;100.00;99422.34;2098439;28;20178;-64
2023/11/26 03:13:36;;;;;;;4.30;2.58;;;;;;;4.01;100.00;99316.41;2094175;28;20195;-64
2023/11/26 03:14:37;;;;;;;4.53;2.80;;;;;;;4.78;100.00;99430.13;2092312;28;20202;-64
2023/11/26 03:15:39;;;;;;;4.80;2.50;;;;;;;4.74;100.00;99434.16;2096739;28;20235;-64
2023/11/26 03:16:44;;;;;;;3.45;2.35;;;;;;;4.75;100.00;99435.69;2090342;28;20180;-64
2023/11/26 03:17:45;;;;;;;4.63;1.92;;;;;;;4.64;100.00;99419.44;2098042;28;21026;-64
2023/11/26 03:18:48;;;;;;;4.10;2.30;;;;;;;4.80;100.00;99435.22;2090113;28;20573;-64
2023/11/26 03:19:49;;;;;;;4.38;2.08;;;;;;;4.85;100.00;99440.22;2097070;28;20179;-64
2023/11/26 03:20:52;;;;;;;3.37;1.87;;;;;;;4.69;100.00;99435.44;2097814;28;20184;-64
2023/11/26 03:21:54;;;;;;;3.67;2.47;;;;;;;4.65;100.00;99447.66;2093443;28;20233;-64
2023/11/26 03:22:55;;;;;;;8.20;2.10;;;;;;;4.73;100.00;99440.84;2089963;28;20188;-64
2023/11/26 03:23:55;;;;;;;3.07;2.20;;;;;;;4.77;100.00;99441.56;2089965;28;20191;-64
2023/11/26 03:24:56;;;;;;;3.80;2.37;;;;;;;4.78;100.00;99440.34;2091266;28;20176;-64
2023/11/26 03:25:57;;;;;;;2.90;2.07;;;;;;;4.32;100.00;99383.59;2098268;28;20183;-64
2023/11/26 03:26:57;;;;;;;3.70;2.33;;;;;;;4.63;100.00;99430.84;2106621;28;20290;-64
2023/11/26 03:27:58;;;;;;;2.57;1.60;;;;;;;4.71;100.00;99449.50;2090630;28;20863;-64
2023/11/26 03:28:59;;;;;;;3.67;2.13;;;;;;;4.73;100.00;99449.84;2101351;28;20736;-64
2023/11/26 03:30:02;;;;;;;2.97;1.80;;;;;;;3.98;100.00;99332.94;2096662;28;20195;-64
2023/11/26 03:31:03;;;;;;;3.05;1.98;;;;;;;4.74;100.00;99450.63;2092721;28;20681;-64
2023/11/26 03:32:04;;;;;;;2.70;1.63;;;;;;;4.69;100.00;99445.63;2096940;28;20688;-64
2023/11/26 03:33:04;;;;;;;3.57;1.97;;;;;;;3.97;100.00;99328.66;2098454;28;20186;-64
2023/11/26 03:34:08;;;;;;;3.30;1.80;;;;;;;4.74;100.00;99443.19;2106214;28;20171;-64
2023/11/26 03:35:09;;;;;;;2.67;1.60;;;;;;;4.77;100.00;99449.78;2089254;28;20645;-64
2023/11/26 03:36:10;;;;;;;3.73;2.10;;;;;;;4.83;100.00;99435.13;2104422;28;20562;-64
2023/11/26 03:37:11;;;;;;;2.88;1.73;;;;;;;4.85;100.00;99451.97;2093438;28;20199;-64
2023/11/26 03:38:13;;;;;;;7.53;1.83;;;;;;;4.85;100.00;99440.22;2099150;28;20265;-64
2023/11/26 03:39:13;;;;;;;2.38;1.42;;;;;;;4.86;100.00;99448.03;2097793;28;20192;-64
2023/11/26 03:40:14;;;;;;;2.17;1.47;;;;;;;4.13;100.00;99351.47;2092008;28;20214;-64
2023/11/26 03:41:15;;;;;;;3.63;1.70;;;;;;;4.72;100.00;99417.34;2095798;28;20175;-64
2023/11/26 03:42:16;;;;;;;3.73;2.10;;;;;;;4.90;100.00;99437.75;2088849;28;20706;-64
2023/11/26 03:43:16;;;;;;;2.67;1.70;;;;;;;4.88;100.00;99442.88;2089552;28;20184;-64
2023/11/26 03:44:17;;;;;;;1.90;1.30;;;;;;;4.85;100.00;99438.25;2089404;28;20199;-64
2023/11/26 03:45:17;;;;;;;2.57;1.60;;;;;;;4.69;100.00;99435.44;2095496;28;20184;-64
2023/11/26 03:46:18;;;;;;;3.77;1.33;;;;;;;4.62;100.00;99423.81;2092629;28;20199;-64
2023/11/26 03:47:18;;;;;;;2.63;1.57;;;;;;;4.62;100.00;99435.53;2092882;28;20183;-64
2023/11/26 03:48:19;;;;;;;2.77;1.77;;;;;;;4.39;100.00;99408.16;2094767;28;20183;-64
2023/11/26 03:49:19;;;;;;;2.57;1.50;;;;;;;4.63;100.00;99442.59;2090221;28;20172;-64
2023/11/26 03:50:20;;;;;;;2.63;1.80;;;;;;;3.95;100.00;99364.69;2097840;28;20172;-64
2023/11/26 03:51:21;;;;;;;2.90;1.70;;;;;;;4.63;100.00;99433.59;2089180;28;20191;-64
2023/11/26 03:52:21;;;;;;;3.60;1.40;;;;;;;4.59;100.00;99433.66;2095778;28;20184;-64
2023/11/26 03:53:21;;;;;;;2.77;1.80;;;;;;;3.74;100.00;99317.72;2092241;28;20271;-64
2023/11/26 03:54:22;;;;;;;3.53;1.70;;;;;;;4.45;100.00;99433.91;2093352;28;20195;-64
2023/11/26 03:55:24;;;;;;;3.40;1.40;;;;;;;4.43;100.00;99438.28;2094824;28;20334;-64
2023/11/26 03:56:24;;;;;;;2.15;1.50;;;;;;;4.38;100.00;99422.28;2090788;28;20187;-64
2023/11/26 03:57:25;;;;;;;2.10;1.33;;;;;;;4.22;100.00;99425.72;2096657;28;20186;-64
2023/11/26 03:58:26;;;;;;;5.10;1.67;;;;;;;4.20;100.00;99432.81;2089017;28;20195;-64
2023/11/26 03:59:26;;;;;;;2.43;1.27;;;;;;;4.22;100.00;99424.94;2089259;28;20198;-64
2023/11/26 04:00:27;;;;;;;3.00;1.70;;;;;;;4.00;100.00;99397.09;2095396;28;20240;-64
2023/11/26 04:01:27;;;;;;;2.50;1.30;;;;;;;4.23;100.00;99437.44;2092263;28;20729;-64
2023/11/26 04:02:28;;;;;;;2.43;1.33;;;;;;;4.20;100.00;99436.31;2089191;28;20198;-64
2023/11/26 04:03:28;;;;;;;1.73;1.10;;;;;;;4.12;100.00;99439.59;2093824;28;20179;-64
2023/11/26 04:04:29;;;;;;;2.80;1.40;;;;;;;4.11;100.00;99449.78;2102580;28;20185;-64
2023/11/26 04:05:30;;;;;;;2.63;1.20;;;;;;;3.95;100.00;99438.69;2089514;28;20175;-64
2023/11/26 04:06:30;;;;;;;2.60;1.60;;;;;;;3.99;100.00;99452.34;2089225;28;20183;-64
2023/11/26 04:07:31;;;;;;;2.20;1.30;;;;;;;3.92;100.00;99457.94;2095565;28;20207;-64
2023/11/26 04:08:31;;;;;;;1.53;1.03;;;;;;;3.25;100.00;99368.56;2091935;28;20202;-64
2023/11/26 04:09:34;;;;;;;2.57;1.57;;;;;;;3.78;100.00;99456.19;2093454;28;20185;-64
2023/11/26 04:10:34;;;;;;;1.90;1.15;;;;;;;3.89;100.00;99462.28;2094173;28;20196;-64
2023/11/26 04:11:35;;;;;;;2.53;1.47;;;;;;;3.70;100.00;99446.53;2090084;28;20258;-64
2023/11/26 04:12:35;;;;;;;2.67;1.40;;;;;;;3.92;100.00;99477.13;2096477;28;20171;-64
2023/11/26 04:13:37;;;;;;;1.90;1.20;;;;;;;3.91;100.00;99478.31;2088866;28;20168;-64
2023/11/26 04:14:39;;;;;;;1.77;1.20;;;;;;;3.93;100.00;99486.88;2098558;28;20572;-64
2023/11/26 04:15:54;;;;;;;2.13;1.10;;;;;;;3.94;100.00;99491.97;2092930;28;20186;-64
2023/11/26 04:16:55;;;;;;;1.75;1.10;;;;;;;3.91;100.00;99489.28;2104475;28;20199;-64
2023/11/26 04:17:55;;;;;;;2.10;1.30;;;;;;;3.81;100.00;99493.75;2092492;28;20218;-64
2023/11/26 04:18:56;;;;;;;2.63;1.40;;;;;;;3.77;100.00;99481.25;2093550;28;20303;-64
2023/11/26 04:19:56;;;;;;;1.67;1.17;;;;;;;3.81;100.00;99493.75;2093335;28;20194;-64
2023/11/26 04:20:57;;;;;;;0.97;0.73;;;;;;;3.73;100.00;99489.53;2091248;28;20451;-64
2023/11/26 04:21:57;;;;;;;2.67;1.37;;;;;;;3.73;100.00;99497.75;2095934;28;20169;-64
2023/11/26 04:22:58;;;;;;;2.63;1.30;;;;;;;3.75;100.00;99494.59;2089229;28;20260;-64
2023/11/26 04:23:58;;;;;;;1.60;0.97;;;;;;;3.77;100.00;99484.78;2104406;28;20268;-64
2023/11/26 04:24:59;;;;;;;3.23;0.97;;;;;;;3.71;100.00;99494.66;2089672;28;20196;-64
2023/11/26 04:26:00;;;;;;;1.13;0.67;;;;;;;3.69;100.00;99488.06;2087676;28;20205;-64
2023/11/26 04:27:00;;;;;;;2.90;1.37;;;;;;;3.70;100.00;99495.06;2049064;28;1253101;-64
2023/11/26 04:28:01;;;;;;;2.40;1.20;;;;;;;3.61;100.00;99481.09;2096821;28;20314;-64
2023/11/26 04:29:02;;;;;;;1.20;0.83;;;;;;;3.67;100.00;99493.16;2095784;28;20208;-64
2023/11/26 04:30:04;;;;;;;3.30;1.10;;;;;;;3.73;100.00;99494.22;2089329;28;20429;-64
2023/11/26 04:31:05;;;;;;;3.25;0.90;;;;;;;3.28;100.00;99425.22;2089181;28;20190;-64
2023/11/26 04:32:05;;;;;;;2.23;0.97;;;;;;;3.70;100.00;99479.38;2089450;28;20219;-64
2023/11/26 04:33:07;;;;;;;1.00;0.77;;;;;;;3.72;100.00;99490.72;2089614;28;20210;-64
2023/11/26 04:34:08;;;;;;;3.80;1.08;;;;;;;3.72;100.00;99487.19;2089344;28;20195;-64
2023/11/26 04:35:11;;;;;;;1.60;0.80;;;;;;;3.74;100.00;99490.31;2089563;28;20204;-64
2023/11/26 04:36:11;;;;;;;2.45;0.98;;;;;;;3.71;100.00;99486.44;2089350;28;20288;-64
2023/11/26 04:37:12;;;;;;;2.33;1.13;;;;;;;3.73;100.00;99483.28;2091474;28;20238;-64
2023/11/26 04:38:12;;;;;;;1.60;0.90;;;;;;;3.63;100.00;99500.63;2096203;28;20680;-64
2023/11/26 04:39:13;;;;;;;6.97;1.13;;;;;;;3.60;100.00;99491.28;2089378;28;20177;-64
2023/11/26 04:40:15;;;;;;;2.20;1.25;;;;;;;3.63;100.00;99503.38;2096985;28;20733;-64
2023/11/26 04:41:16;;;;;;;1.98;1.05;;;;;;;3.18;100.00;99453.50;2090383;28;20277;-64
2023/11/26 04:42:17;;;;;;;1.73;1.10;;;;;;;3.62;100.00;99508.09;2094346;28;20204;-64
2023/11/26 04:43:18;;;;;;;1.10;0.90;;;;;;;3.60;100.00;99507.72;2097426;28;20663;-63
2023/11/26 04:44:19;;;;;;;1.73;1.20;;;;;;;3.57;100.00;99502.28;2094404;28;20449;-63
2023/11/26 04:45:19;;;;;;;1.55;1.02;;;;;;;3.53;100.00;99518.78;2091383;28;20691;-63
2023/11/26 04:46:20;;;;;;;1.83;1.10;;;;;;;3.56;100.00;99514.44;2095577;28;20667;-64
2023/11/26 04:47:20;;;;;;;3.70;0.77;;;;;;;3.50;100.00;99516.84;2089131;28;20196;-63
2023/11/26 04:48:21;;;;;;;3.10;1.17;;;;;;;3.51;100.00;99523.09;2088647;28;20245;-64
2023/11/26 04:49:23;;;;;;;0.90;0.60;;;;;;;2.76;100.00;99423.16;2095771;28;20202;-63
2023/11/26 04:50:24;;;;;;;2.65;0.80;;;;;;;3.46;100.00;99535.31;2091771;28;20195;-64
2023/11/26 04:51:24;;;;;;;1.17;0.80;;;;;;;3.33;100.00;99509.63;2088904;28;20290;-63